createdAt,value
2022-10-09T00:02:53.962Z,16.46
2022-10-09T00:05:55.954Z,16.36
2022-10-09T00:08:59.458Z,16.12
2022-10-09T00:12:02.076Z,16.13
2022-10-09T00:15:04.456Z,16.27
2022-10-09T00:18:08.101Z,16.30
2022-10-09T00:21:36.886Z,16.18
2022-10-09T00:24:39.253Z,16.10
2022-10-09T00:27:42.412Z,16.25
2022-10-09T00:30:44.998Z,16.38
2022-10-09T00:33:47.402Z,16.18
2022-10-09T00:36:49.648Z,16.09
2022-10-09T00:39:52.541Z,16.25
2022-10-09T00:42:59.311Z,16.41
2022-10-09T00:46:06.657Z,16.36
2022-10-09T00:49:18.275Z,16.39
2022-10-09T00:52:29.151Z,16.27
2022-10-09T00:55:35.082Z,16.30
2022-10-09T00:58:37.992Z,16.17
2022-10-09T01:01:42.821Z,16.26
2022-10-09T01:04:47.027Z,16.17
2022-10-09T01:08:06.536Z,15.98
2022-10-09T01:11:22.293Z,16.19
2022-10-09T01:14:32.783Z,16.00
2022-10-09T01:17:42.206Z,16.18
2022-10-09T01:21:10.921Z,16.15
2022-10-09T01:24:15.630Z,16.20
2022-10-09T01:27:24.548Z,16.06
2022-10-09T01:30:27.604Z,16.03
2022-10-09T01:33:40.184Z,15.94
2022-10-09T01:36:44.349Z,16.06
2022-10-09T01:40:15.806Z,16.13
2022-10-09T01:43:17.885Z,16.06
2022-10-09T01:46:29.373Z,16.07
2022-10-09T01:49:43.337Z,16.09
2022-10-09T01:53:01.804Z,15.96
2022-10-09T01:56:19.229Z,16.00
2022-10-09T01:59:24.545Z,15.95
2022-10-09T02:02:28.085Z,15.74
2022-10-09T02:05:32.823Z,15.71
2022-10-09T02:08:40.511Z,15.78
2022-10-09T02:11:50.161Z,15.57
2022-10-09T02:14:52.208Z,15.78
2022-10-09T02:18:02.875Z,15.68
2022-10-09T02:21:21.191Z,15.70
2022-10-09T02:24:24.193Z,15.82
2022-10-09T02:27:27.830Z,15.75
2022-10-09T02:30:39.457Z,15.77
2022-10-09T02:33:42.572Z,15.73
2022-10-09T02:36:44.571Z,15.89
2022-10-09T02:39:47.222Z,15.79
2022-10-09T02:42:49.933Z,15.82
2022-10-09T02:45:52.305Z,15.86
2022-10-09T02:48:54.374Z,15.86
2022-10-09T02:51:56.415Z,15.76
2022-10-09T02:54:58.456Z,15.74
2022-10-09T02:58:00.583Z,15.61
2022-10-09T03:01:05.130Z,15.57
2022-10-09T03:04:07.167Z,15.62
2022-10-09T03:07:09.384Z,15.84
2022-10-09T03:10:11.311Z,15.90
2022-10-09T03:13:13.425Z,16.14
2022-10-09T03:16:18.670Z,16.51
2022-10-09T03:19:20.744Z,16.75
2022-10-09T03:22:23.233Z,18.23
2022-10-09T03:25:25.364Z,21.62
2022-10-09T03:28:28.028Z,23.38
2022-10-09T03:34:52.206Z,20.01
2022-10-09T03:37:54.238Z,18.17
2022-10-09T03:40:58.854Z,17.19
2022-10-09T03:44:01.062Z,16.66
2022-10-09T03:47:03.167Z,16.46
2022-10-09T03:50:07.042Z,16.27
2022-10-09T03:53:11.539Z,16.39
2022-10-09T03:56:13.743Z,16.32
2022-10-09T03:59:15.781Z,16.15
2022-10-09T04:02:17.788Z,16.18
2022-10-09T04:05:20.465Z,16.08
2022-10-09T04:08:22.457Z,16.13
2022-10-09T04:11:24.529Z,16.10
2022-10-09T04:14:26.539Z,16.05
2022-10-09T04:17:29.088Z,15.91
2022-10-09T04:20:31.617Z,16.18
2022-10-09T04:23:35.088Z,16.48
2022-10-09T04:26:37.221Z,16.48
2022-10-09T04:29:42.046Z,16.35
2022-10-09T04:32:44.126Z,16.19
2022-10-09T04:35:49.600Z,16.02
2022-10-09T04:38:52.847Z,15.93
2022-10-09T04:41:54.926Z,15.98
2022-10-09T04:44:56.988Z,15.87
2022-10-09T04:47:59.440Z,15.98
2022-10-09T04:51:04.946Z,16.05
2022-10-09T04:54:08.637Z,16.27
2022-10-09T04:57:12.743Z,16.14
2022-10-09T05:00:15.447Z,15.96
2022-10-09T05:03:18.775Z,15.76
2022-10-09T05:06:23.075Z,15.74
2022-10-09T05:09:25.476Z,15.77
2022-10-09T05:12:29.588Z,15.67
2022-10-09T05:15:32.392Z,15.54
2022-10-09T05:18:45.158Z,15.66
2022-10-09T05:21:48.184Z,15.79
2022-10-09T05:24:50.250Z,15.63
2022-10-09T05:27:52.379Z,15.72
2022-10-09T05:30:59.347Z,15.60
2022-10-09T05:34:02.290Z,15.80
2022-10-09T05:37:04.332Z,15.65
2022-10-09T05:40:07.102Z,15.65
2022-10-09T05:43:09.213Z,15.81
2022-10-09T05:46:15.650Z,15.89
2022-10-09T05:49:17.872Z,15.85
2022-10-09T05:52:20.615Z,15.87
2022-10-09T05:55:22.585Z,15.86
2022-10-09T05:58:25.811Z,16.11
2022-10-09T06:01:32.932Z,16.12
2022-10-09T06:04:35.057Z,16.12
2022-10-09T06:07:38.249Z,16.25
2022-10-09T06:10:40.407Z,16.39
2022-10-09T06:13:43.872Z,16.33
2022-10-09T06:16:46.347Z,16.41
2022-10-09T06:19:48.647Z,16.44
2022-10-09T06:22:51.844Z,16.46
2022-10-09T06:25:59.601Z,16.47
2022-10-09T06:29:02.863Z,16.47
2022-10-09T06:32:04.960Z,16.56
2022-10-09T06:35:07.804Z,16.43
2022-10-09T06:38:10.783Z,16.49
2022-10-09T06:41:24.465Z,16.70
2022-10-09T06:44:26.901Z,16.62
2022-10-09T06:47:31.723Z,16.64
2022-10-09T06:50:37.367Z,16.66
2022-10-09T06:53:43.270Z,16.67
2022-10-09T06:56:45.452Z,16.68
2022-10-09T06:59:50.291Z,16.71
2022-10-09T07:02:53.014Z,16.77
2022-10-09T07:06:05.105Z,16.97
2022-10-09T07:09:10.266Z,16.93
2022-10-09T07:12:13.157Z,17.05
2022-10-09T07:15:15.430Z,17.12
2022-10-09T07:18:17.741Z,17.08
2022-10-09T07:21:20.162Z,17.19
2022-10-09T07:24:25.247Z,17.32
2022-10-09T07:27:28.565Z,17.39
2022-10-09T07:30:30.960Z,17.35
2022-10-09T07:33:33.467Z,17.40
2022-10-09T07:36:36.026Z,17.45
2022-10-09T07:39:40.578Z,17.51
2022-10-09T07:42:44.971Z,17.47
2022-10-09T07:45:48.737Z,17.48
2022-10-09T07:48:51.642Z,17.50
2022-10-09T07:51:55.857Z,17.35
2022-10-09T07:54:58.116Z,17.47
2022-10-09T07:58:00.298Z,17.59
2022-10-09T08:01:08.629Z,17.67
2022-10-09T08:04:11.047Z,17.71
2022-10-09T08:07:14.744Z,17.75
2022-10-09T08:10:18.268Z,17.72
2022-10-09T08:13:21.623Z,17.83
2022-10-09T08:16:25.605Z,17.91
2022-10-09T08:19:27.704Z,17.89
2022-10-09T08:22:32.745Z,17.88
2022-10-09T08:25:37.063Z,17.89
2022-10-09T08:28:39.189Z,17.86
2022-10-09T08:31:41.347Z,17.73
2022-10-09T08:34:43.561Z,17.82
2022-10-09T08:37:46.869Z,17.91
2022-10-09T08:41:00.954Z,17.92
2022-10-09T08:44:20.946Z,17.98
2022-10-09T08:47:41.279Z,17.91
2022-10-09T08:50:49.429Z,17.96
2022-10-09T08:53:58.968Z,18.13
2022-10-09T08:57:04.407Z,18.21
2022-10-09T09:00:18.136Z,18.08
2022-10-09T09:03:45.374Z,18.34
2022-10-09T09:07:06.220Z,18.38
2022-10-09T09:10:24.397Z,18.41
2022-10-09T09:13:38.671Z,18.47
2022-10-09T09:17:11.488Z,18.52
2022-10-09T09:20:30.275Z,18.55
2022-10-09T09:23:40.908Z,18.50
2022-10-09T09:26:45.662Z,18.58
2022-10-09T09:30:19.870Z,18.61
2022-10-09T09:33:50.516Z,18.61
2022-10-09T09:36:57.598Z,18.69
2022-10-09T09:43:24.163Z,18.72
2022-10-09T09:46:31.155Z,18.72
2022-10-09T09:49:34.207Z,18.80
2022-10-09T09:52:40.748Z,18.88
2022-10-09T09:55:43.043Z,18.86
2022-10-09T09:58:48.440Z,19.00
2022-10-09T10:02:00.589Z,18.81
2022-10-09T10:05:15.907Z,18.89
2022-10-09T10:08:34.753Z,19.05
2022-10-09T10:11:37.565Z,19.00
2022-10-09T10:14:51.028Z,18.99
2022-10-09T10:18:10.880Z,19.09
2022-10-09T10:21:17.172Z,19.09
2022-10-09T10:24:28.066Z,19.05
2022-10-09T10:27:40.808Z,19.21
2022-10-09T10:30:44.004Z,19.13
2022-10-09T10:33:54.262Z,19.21
2022-10-09T10:37:15.712Z,19.18
2022-10-09T10:40:31.180Z,19.30
2022-10-09T10:43:51.667Z,19.24
2022-10-09T10:47:02.048Z,19.19
2022-10-09T10:50:05.207Z,19.20
2022-10-09T10:53:29.428Z,19.20
2022-10-09T10:56:38.230Z,19.21
2022-10-09T11:00:04.237Z,19.39
2022-10-09T11:03:34.624Z,19.35
2022-10-09T11:07:00.701Z,19.47
2022-10-09T11:10:54.899Z,19.55
2022-10-09T11:14:21.967Z,19.61
2022-10-09T11:17:55.891Z,19.65
2022-10-09T11:21:13.595Z,19.63
2022-10-09T11:24:44.504Z,19.74
2022-10-09T11:27:54.939Z,19.65
2022-10-09T11:34:37.758Z,19.76
2022-10-09T11:37:42.329Z,19.79
2022-10-09T11:40:44.497Z,19.90
2022-10-09T11:44:02.617Z,19.94
2022-10-09T11:47:16.854Z,19.97
2022-10-09T11:50:42.978Z,19.99
2022-10-09T11:53:46.448Z,19.97
2022-10-09T11:57:06.121Z,19.95
2022-10-09T12:00:10.604Z,19.96
2022-10-09T12:03:33.779Z,20.00
2022-10-09T12:06:47.958Z,19.99
2022-10-09T12:09:59.843Z,19.88
2022-10-09T12:13:08.447Z,19.95
2022-10-09T12:16:50.337Z,19.95
2022-10-09T12:20:00.082Z,19.97
2022-10-09T12:23:27.070Z,20.17
2022-10-09T12:26:31.345Z,20.44
2022-10-09T12:29:44.699Z,20.72
2022-10-09T12:32:54.489Z,21.05
2022-10-09T12:36:03.939Z,21.14
2022-10-09T12:39:23.404Z,20.90
2022-10-09T12:42:25.582Z,21.30
2022-10-09T12:45:30.691Z,21.43
2022-10-09T12:48:39.017Z,21.39
2022-10-09T12:51:41.066Z,21.35
2022-10-09T12:54:45.178Z,21.31
2022-10-09T12:57:47.590Z,21.33
2022-10-09T13:00:53.739Z,21.28
2022-10-09T13:04:04.735Z,21.24
2022-10-09T13:07:18.783Z,21.28
2022-10-09T13:10:23.503Z,21.33
2022-10-09T13:13:28.367Z,21.32
2022-10-09T13:16:45.115Z,21.83
2022-10-09T13:19:54.962Z,22.24
2022-10-09T13:23:02.781Z,22.50
2022-10-09T13:26:07.706Z,22.63
2022-10-09T13:29:14.383Z,22.74
2022-10-09T13:32:18.465Z,22.94
2022-10-09T13:35:26.567Z,23.18
2022-10-09T13:38:34.610Z,23.26
2022-10-09T13:41:37.244Z,22.64
2022-10-09T13:44:39.698Z,22.50
2022-10-09T13:47:41.902Z,22.54
2022-10-09T13:50:44.747Z,22.40
2022-10-09T13:53:47.052Z,21.99
2022-10-09T13:56:55.555Z,21.45
2022-10-09T13:59:58.409Z,21.01
2022-10-09T14:03:01.733Z,20.88
2022-10-09T14:06:03.921Z,20.98
2022-10-09T14:09:06.752Z,20.95
2022-10-09T14:12:09.077Z,20.83
2022-10-09T14:15:11.298Z,20.75
2022-10-09T14:18:13.406Z,20.60
2022-10-09T14:21:15.942Z,20.54
2022-10-09T14:24:19.539Z,20.44
2022-10-09T14:27:21.654Z,20.08
2022-10-09T14:30:23.793Z,20.21
2022-10-09T14:33:26.570Z,20.16
2022-10-09T14:36:29.263Z,20.08
2022-10-09T14:39:31.369Z,20.04
2022-10-09T14:42:33.395Z,19.94
2022-10-09T14:45:35.435Z,19.82
2022-10-09T14:48:38.159Z,19.76
2022-10-09T14:51:41.340Z,19.81
2022-10-09T14:54:43.337Z,19.76
2022-10-09T14:57:45.457Z,19.75
2022-10-09T15:00:47.751Z,19.65
2022-10-09T15:03:50.111Z,19.63
2022-10-09T15:06:52.431Z,19.57
2022-10-09T15:09:58.106Z,19.48
2022-10-09T15:13:00.088Z,19.47
2022-10-09T15:16:04.886Z,19.54
2022-10-09T15:19:06.929Z,19.49
2022-10-09T15:22:09.030Z,19.41
2022-10-09T15:25:13.479Z,19.48
2022-10-09T15:28:17.234Z,19.43
2022-10-09T15:31:28.320Z,19.27
2022-10-09T15:34:31.026Z,19.26
2022-10-09T15:37:33.192Z,19.28
2022-10-09T15:40:47.189Z,19.24
2022-10-09T15:43:50.482Z,19.15
2022-10-09T15:46:52.784Z,19.24
2022-10-09T15:49:54.818Z,19.10
2022-10-09T15:52:57.047Z,19.11
2022-10-09T15:56:05.538Z,19.08
2022-10-09T15:59:10.792Z,19.07
2022-10-09T16:02:13.317Z,19.06
2022-10-09T16:05:15.472Z,19.28
2022-10-09T16:08:19.045Z,19.43
2022-10-09T16:11:24.963Z,19.53
2022-10-09T16:14:30.471Z,19.55
2022-10-09T16:17:32.563Z,19.64
2022-10-09T16:20:35.857Z,19.59
2022-10-09T16:23:38.000Z,19.64
2022-10-09T16:26:40.051Z,19.29
2022-10-09T16:29:42.228Z,19.06
2022-10-09T16:32:44.238Z,18.92
2022-10-09T16:35:46.719Z,18.83
2022-10-09T16:38:49.055Z,18.82
2022-10-09T16:41:50.974Z,18.93
2022-10-09T16:44:53.114Z,18.93
2022-10-09T16:48:00.135Z,18.90
2022-10-09T16:51:02.257Z,18.87
2022-10-09T16:54:05.761Z,18.90
2022-10-09T16:57:08.490Z,18.84
2022-10-09T17:00:11.101Z,18.76
2022-10-09T17:03:13.178Z,18.73
2022-10-09T17:06:19.845Z,19.01
2022-10-09T17:09:22.152Z,19.41
2022-10-09T17:12:24.821Z,19.51
2022-10-09T17:15:26.943Z,19.76
2022-10-09T17:18:30.082Z,19.89
2022-10-09T17:21:34.539Z,19.92
2022-10-09T17:24:37.283Z,20.00
2022-10-09T17:27:39.828Z,20.02
2022-10-09T17:30:41.953Z,20.14
2022-10-09T17:33:46.422Z,20.04
2022-10-09T17:36:48.521Z,20.03
2022-10-09T17:39:52.919Z,19.91
2022-10-09T17:42:55.036Z,19.77
2022-10-09T17:45:57.358Z,19.82
2022-10-09T17:49:02.904Z,19.80
2022-10-09T17:52:05.931Z,19.70
2022-10-09T17:55:08.655Z,19.68
2022-10-09T17:58:12.644Z,19.75
2022-10-09T18:01:16.083Z,19.68
2022-10-09T18:04:20.167Z,19.66
2022-10-09T18:07:22.775Z,19.47
2022-10-09T18:10:25.610Z,19.40
2022-10-09T18:13:28.365Z,19.41
2022-10-09T18:16:36.178Z,19.34
2022-10-09T18:19:38.613Z,19.31
2022-10-09T18:22:41.541Z,19.28
2022-10-09T18:25:44.828Z,19.25
2022-10-09T18:28:48.856Z,19.12
2022-10-09T18:31:55.848Z,19.16
2022-10-09T18:34:58.217Z,19.13
2022-10-09T18:38:00.383Z,19.21
2022-10-09T18:41:02.452Z,19.11
2022-10-09T18:44:05.630Z,19.08
2022-10-09T18:47:13.323Z,19.05
2022-10-09T18:50:17.263Z,18.85
2022-10-09T18:53:19.410Z,18.95
2022-10-09T18:56:22.989Z,18.89
2022-10-09T18:59:25.152Z,18.88
2022-10-09T19:02:32.187Z,18.76
2022-10-09T19:05:34.387Z,18.61
2022-10-09T19:08:38.607Z,18.53
2022-10-09T19:11:40.774Z,18.46
2022-10-09T19:14:43.841Z,18.51
2022-10-09T19:17:48.294Z,18.47
2022-10-09T19:20:50.672Z,18.47
2022-10-09T19:23:54.369Z,18.39
2022-10-09T19:27:01.188Z,18.52
2022-10-09T19:30:04.959Z,18.38
2022-10-09T19:33:07.006Z,18.39
2022-10-09T19:36:12.014Z,18.31
2022-10-09T19:39:14.628Z,18.29
2022-10-09T19:42:19.099Z,18.25
2022-10-09T19:45:21.538Z,18.23
2022-10-09T19:48:25.405Z,18.20
2022-10-09T19:51:28.753Z,18.00
2022-10-09T19:54:35.688Z,18.06
2022-10-09T19:57:37.795Z,18.04
2022-10-09T20:00:45.284Z,18.05
2022-10-09T20:03:48.948Z,17.92
2022-10-09T20:06:52.116Z,17.89
2022-10-09T20:09:54.193Z,17.87
2022-10-09T20:12:57.482Z,17.75
2022-10-09T20:16:01.136Z,17.87
2022-10-09T20:19:04.870Z,17.81
2022-10-09T20:22:07.907Z,17.67
2022-10-09T20:25:11.119Z,17.78
2022-10-09T20:28:14.753Z,17.76
2022-10-09T20:31:20.797Z,17.84
2022-10-09T20:34:25.123Z,17.83
2022-10-09T20:37:27.629Z,17.80
2022-10-09T20:40:29.662Z,17.80
2022-10-09T20:43:32.109Z,17.86
2022-10-09T20:46:36.595Z,17.76
2022-10-09T20:49:44.255Z,17.90
2022-10-09T20:52:47.992Z,17.76
2022-10-09T20:55:50.288Z,17.90
2022-10-09T20:58:53.030Z,17.78
2022-10-09T21:01:55.509Z,17.64
2022-10-09T21:04:59.975Z,17.64
2022-10-09T21:08:02.064Z,17.63
2022-10-09T21:11:07.095Z,17.56
2022-10-09T21:14:10.904Z,17.71
2022-10-09T21:17:13.165Z,17.63
2022-10-09T21:20:15.962Z,17.74
2022-10-09T21:23:18.924Z,17.70
2022-10-09T21:26:23.093Z,17.56
2022-10-09T21:29:27.250Z,17.47
2022-10-09T21:32:29.745Z,17.39
2022-10-09T21:35:38.559Z,17.35
2022-10-09T21:38:41.370Z,17.38
2022-10-09T21:41:43.997Z,17.36
2022-10-09T21:44:46.095Z,17.33
2022-10-09T21:47:49.073Z,17.43
2022-10-09T21:50:51.593Z,17.43
2022-10-09T21:53:55.843Z,17.45
2022-10-09T21:56:58.492Z,17.30
2022-10-09T22:00:00.767Z,17.30
2022-10-09T22:03:02.991Z,17.40
2022-10-09T22:06:17.744Z,17.39
2022-10-09T22:09:20.985Z,17.26
2022-10-09T22:12:23.276Z,17.12
2022-10-09T22:15:26.289Z,17.06
2022-10-09T22:18:28.633Z,16.96
2022-10-09T22:21:30.684Z,16.89
2022-10-09T22:24:32.848Z,16.97
2022-10-09T22:27:35.077Z,16.76
2022-10-09T22:30:37.964Z,16.89
2022-10-09T22:33:40.830Z,16.91
2022-10-09T22:36:44.065Z,16.84
2022-10-09T22:39:46.123Z,16.82
2022-10-09T22:42:49.342Z,16.85
2022-10-09T22:45:52.490Z,16.93
2022-10-09T22:48:54.726Z,16.83
2022-10-09T22:51:57.535Z,16.83
2022-10-09T22:55:00.799Z,16.85
2022-10-09T22:58:02.770Z,16.77
2022-10-09T23:01:08.266Z,16.69
2022-10-09T23:04:14.544Z,16.60
2022-10-09T23:07:16.615Z,16.45
2022-10-09T23:10:20.488Z,16.53
2022-10-09T23:13:22.551Z,16.47
2022-10-09T23:16:29.892Z,16.51
2022-10-09T23:19:31.999Z,16.53
2022-10-09T23:22:34.093Z,16.41
2022-10-09T23:25:40.487Z,16.35
2022-10-09T23:28:44.299Z,16.45
2022-10-09T23:31:52.765Z,16.36
2022-10-09T23:34:55.305Z,16.34
2022-10-09T23:37:57.484Z,16.44
2022-10-09T23:41:02.588Z,16.45
2022-10-09T23:44:05.437Z,16.40
2022-10-09T23:47:09.340Z,16.24
2022-10-09T23:50:11.820Z,16.16
2022-10-09T23:53:14.216Z,16.22
2022-10-09T23:56:23.782Z,16.28
2022-10-09T23:59:25.690Z,16.25
